Brisbane, Queensland, Australia, Latitude 27°S 23' 52", Longitude 152° E 55' 35", Elevation 76 m

At: Mon 30 Mar 2020 4:35:04 am, Temperature: 17.8 °C, Humidity: 96 %, Wind speed: 0 km/h, Wind Gust: 0 km/h, Rain today: 0.0 mm, MSLP: 1015.51 hPa

Website under continual development from 10 years of weather data. Please contact us if you find issues or like to provide feedback.

Recent Observations

This page presents the weather data from the last 72 hours at 30 minute intervals.

Last updated at 4:35:04 am AEST on Mon 30 March 2020.

Last 24 hours
Date/Time(AEST) Temp. ( °C) Dew Point ( °C) Relative Humidity (%) Apparent Temp. ( °C) Wind Direction Wind Speed (kph) Wind Gust (kph) Wind Speed (kts) Wind Gust (kts) MSL Pressure (hPa) Rain since midnight (mm)
30/03 4:35 am 17.8 17.1 96 20.2 CALM 0 0 0 0 1015.51 0.0
30/03 4:05 am 17.8 17.0 95 20.2 CALM 0 0 0 0 1015.54 0.0
30/03 3:35 am 18.1 17.3 95 20.6 CALM 0 0 0 0 1015.58 0.0
30/03 3:05 am 18.3 17.5 95 20.9 CALM 0 0 0 0 1015.82 0.0
30/03 2:35 am 18.4 17.6 95 21 CALM 0 0 0 0 1016.15 0.0
30/03 2:05 am 18.7 17.8 95 21.4 CALM 0 0 0 0 1016.56 0.0
30/03 1:35 am 18.8 18.0 95 21.6 CALM 0 0 0 0 1016.73 0.0
30/03 1:05 am 18.9 18.0 94 21.7 CALM 0 0 0 0 1017.37 0.0
30/03 12:35 am 19.1 18.1 94 21.9 CALM 0 0 0 0 1017.51 0.0
30/03 12:05 am 19.3 18.2 93 22.2 CALM 0 0 0 0 1017.51 0.0
29/03 11:35 pm 19.5 18.3 93 22.4 CALM 0 0 0 0 1017.61 0.0
29/03 11:05 pm 19.7 18.6 93 22.7 CALM 0 0 0 0 1017.81 0.0
29/03 10:35 pm 19.8 18.5 92 22.8 CALM 0 0 0 0 1018.05 0.0
29/03 10:05 pm 20.2 18.7 91 23.3 CALM 0 0 0 0 1018.19 0.0
29/03 9:35 pm 20.5 18.8 90 23.6 CALM 0 0 0 0 1018.49 0.0
29/03 9:05 pm 20.9 19.0 89 24.1 CALM 0 0 0 0 1018.56 0.0
29/03 8:35 pm 21.4 19.2 87 24.7 CALM 0 0 0 0 1018.08 0.0
29/03 8:05 pm 22.1 19.4 85 25.5 CALM 0 0 0 0 1017.95 0.0
29/03 7:35 pm 22.6 19.5 83 26.1 CALM 0 0 0 0 1017.81 0.0
29/03 7:05 pm 23.1 19.6 81 24.5 ENE 3 10 2 5 1017.58 0.0
29/03 6:35 pm 23.6 19.9 80 26.6 NE 1 4 1 2 1017.31 0.0
29/03 6:05 pm 23.9 19.7 77 24.6 E 4 10 2 5 1016.97 0.0
29/03 5:35 pm 24.7 19.9 75 24.9 ENE 5 12 3 6 1016.53 0.0
29/03 5:05 pm 25.5 19.9 71 24.2 ENE 7 15 4 8 1016.15 0.0
29/03 4:35 pm 26.1 19.5 67 25.4 ENE 6 14 3 8 1016.05 0.0
29/03 4:05 pm 26.4 19.0 64 26.1 E 5 10 3 5 1016.09 0.0
29/03 3:35 pm 27.6 19.9 63 27.1 ENE 6 14 3 8 1015.82 0.0
29/03 3:05 pm 27.6 19.1 60 28.1 E 4 14 2 8 1015.85 0.0
29/03 2:35 pm 28.3 19.3 58 28.1 ENE 5 12 3 6 1015.65 0.0
29/03 2:05 pm 28.4 18.8 56 29.4 NNE 3 12 2 6 1016.02 0.0
29/03 1:35 pm 26.7 19.3 64 28 NE 3 10 2 5 1016.63 0.0
29/03 1:05 pm 27.3 19.7 63 28.7 ENE 3 10 2 5 1016.63 0.0
29/03 12:35 pm 28.8 20.0 59 30.4 NE 3 10 2 5 1016.86 0.0
29/03 12:05 pm 26.8 20.2 67 28.5 ESE 3 8 2 4 1017.37 0.0
29/03 11:35 am 26.6 20.0 67 28.2 SSE 3 6 2 3 1017.88 0.0
29/03 11:05 am 26.7 19.6 65 26.7 S 5 6 3 3 1018.25 0.0
29/03 10:35 am 26.1 19.5 67 27.5 SSW 3 8 2 4 1018.42 0.0
29/03 10:05 am 25.3 19.9 72 26.8 ENE 3 6 2 3 1018.63 0.0
29/03 9:35 am 23.7 19.4 77 26.4 E 1 4 1 2 1018.93 0.0
29/03 9:05 am 23.6 19.7 79 23 SSE 6 12 3 6 1018.83 0.0
29/03 8:35 am 22.4 19.4 83 23 SSW 4 14 2 8 1019.07 0.0
29/03 8:05 am 21.7 19.5 87 22.3 SSW 4 8 2 4 1018.90 0.0
29/03 7:35 am 20.6 18.9 90 21 SSW 4 12 2 6 1018.66 0.0
29/03 7:05 am 19.8 18.7 93 22.9 CALM 0 6 0 3 1018.52 0.0
29/03 6:35 am 19.4 18.5 94 20.3 SW 3 4 2 2 1018.15 0.0
29/03 6:05 am 19.2 18.3 95 22.2 SW 0 6 0 3 1017.68 0.0
29/03 5:35 am 19.0 18.2 95 21.9 CALM 0 4 0 2 1017.14 0.0
29/03 5:05 am 19.0 18.3 96 20.5 SW 2 6 1 3 1016.76 0.0
24 to 48 hours ago
Date/Time(AEST) Temp. °C Dew Point °C Relative Humidity % Appararent Temp. °C Wind Direction Wind Speed (kph) Wind Gust (kph) Wind Speed (kts) Wind Gust (kts) MSL Pressure (hPa) Rain since midnight (mm)
29/03 4:35 am 18.8 18.3 97 21.7 CALM 0 0 0 0 1016.70 0.0
29/03 4:05 am 18.6 17.9 96 21.4 CALM 0 0 0 0 1016.93 0.0
29/03 3:35 am 18.6 18.0 96 21.4 CALM 0 0 0 0 1016.83 0.0
29/03 3:05 am 18.9 18.2 96 21.8 CALM 0 4 0 2 1016.97 0.0
29/03 2:35 am 18.9 18.1 95 21.7 CALM 0 4 0 2 1017.24 0.0
29/03 2:05 am 19.0 18.2 95 21.9 CALM 0 0 0 0 1017.17 0.0
29/03 1:35 am 18.9 18.2 96 21.8 CALM 0 0 0 0 1017.64 0.0
29/03 1:05 am 18.8 18.0 95 21.6 CALM 0 0 0 0 1017.91 0.0
29/03 12:35 am 18.9 18.1 95 21.7 CALM 0 2 0 1 1017.91 0.0
29/03 12:05 am 18.9 18.1 95 21.7 CALM 0 0 0 0 1018.05 0.0
28/03 11:35 pm 19.2 18.2 94 22.1 CALM 0 0 0 0 1018.15 0.0
28/03 11:05 pm 19.0 18.2 95 21.9 CALM 0 0 0 0 1018.52 0.0
28/03 10:35 pm 19.0 18.0 94 21.8 CALM 0 0 0 0 1018.66 0.0
28/03 10:05 pm 19.2 18.1 93 22 CALM 0 0 0 0 1018.93 0.0
28/03 9:35 pm 19.4 18.3 93 22.3 CALM 0 0 0 0 1019.24 0.0
28/03 9:05 pm 19.7 18.3 92 22.7 CALM 0 0 0 0 1018.96 0.0
28/03 8:35 pm 20.0 18.5 91 23 CALM 0 4 0 2 1018.73 0.0
28/03 8:05 pm 20.4 18.6 89 23.4 CALM 0 0 0 0 1018.66 0.0
28/03 7:35 pm 20.9 18.9 88 24.1 CALM 0 2 0 1 1018.35 0.0
28/03 7:05 pm 21.3 18.9 86 24.5 CALM 0 0 0 0 1018.19 0.0
28/03 6:35 pm 21.9 19.1 84 25.2 CALM 0 0 0 0 1018.32 0.0
28/03 6:05 pm 22.6 19.1 81 25.9 CALM 0 0 0 0 1017.95 0.0
28/03 5:35 pm 23.3 19.3 78 24.5 ENE 3 8 2 4 1017.71 0.0
28/03 5:05 pm 24.3 19.6 75 25 E 4 10 2 5 1017.44 0.0
28/03 4:35 pm 24.9 18.9 69 23.8 ESE 6 14 3 8 1017.14 0.0
28/03 4:05 pm 26.4 19.1 64 25.4 ENE 6 17 3 9 1016.97 0.0
28/03 3:35 pm 25.8 18.9 66 25.5 ENE 5 8 3 4 1017.00 0.0
28/03 3:05 pm 26.0 19.6 68 24.6 ENE 7 12 4 6 1017.07 0.0
28/03 2:35 pm 25.1 18.6 67 23.9 E 6 15 3 8 1017.20 0.0
28/03 2:05 pm 25.3 18.5 66 24.1 E 6 12 3 6 1017.17 0.0
28/03 1:35 pm 26.8 19.6 65 27.5 E 2 8 1 4 1017.61 0.0
28/03 1:05 pm 25.6 19.2 68 27.5 SSE 2 8 1 4 1017.61 0.0
28/03 12:35 pm 26.2 19.1 65 27.4 S 3 6 2 3 1017.98 0.0
28/03 12:05 pm 26.5 19.1 64 27 SSW 4 8 2 4 1018.63 0.0
28/03 11:35 am 26.6 19.2 64 25.7 S 6 14 3 8 1019.07 0.0
28/03 11:05 am 26.7 19.0 63 25.1 SE 7 8 4 4 1019.30 0.0
28/03 10:35 am 26.2 18.8 64 23.1 SSW 9 14 5 8 1019.57 0.0
28/03 10:05 am 25.0 18.0 65 22.2 SSE 8 14 4 8 1019.84 0.0
28/03 9:35 am 25.0 18.2 66 22.3 S 8 12 4 6 1020.05 0.0
28/03 9:05 am 24.3 18.0 68 22.9 SW 6 8 3 4 1020.15 0.0
28/03 8:35 am 22.8 17.0 70 20.3 SW 7 14 4 8 1019.91 0.0
28/03 8:05 am 21.2 16.6 75 19.2 SSW 6 14 3 8 1019.88 0.0
28/03 7:35 am 20.4 16.4 78 18.4 SSW 6 15 3 8 1019.57 0.0
28/03 7:05 am 19.2 16.1 82 19.1 SSW 3 12 2 6 1019.34 0.0
28/03 6:35 am 18.7 15.9 84 18.6 SSW 3 10 2 5 1019.03 0.0
28/03 6:05 am 18.4 15.9 85 20.3 CALM 0 6 0 3 1019.10 0.0
28/03 5:35 am 18.1 15.9 87 20 CALM 0 2 0 1 1019.07 0.0
28/03 5:05 am 17.9 15.5 86 19.7 SSW 0 2 0 1 1018.90 0.0
48 to 72 hours ago
Date/Time(AEST) Temp. °C Dew Point °C Relative Humidity % Appararent Temp. °C Wind Direction Wind Speed (kph) Wind Gust (kph) Wind Speed (kts) Wind Gust (kts) MSL Pressure (hPa) Rain since midnight (mm)
28/03 4:35 am 18.0 15.6 86 19.8 SW 0 6 0 3 1018.52 0.0
28/03 4:05 am 17.9 15.6 86 19.7 CALM 0 6 0 3 1018.49 0.0
28/03 3:35 am 18.1 15.5 85 18.5 SSW 2 12 1 6 1018.66 0.0
28/03 3:05 am 18.3 15.5 84 18 SSW 3 8 2 4 1018.52 0.0
28/03 2:35 am 18.4 15.4 83 18.8 SSW 2 8 1 4 1018.39 0.0
28/03 2:05 am 18.6 15.7 83 18.4 SSW 3 6 2 3 1019.07 0.0
28/03 1:35 am 18.7 15.5 82 18.4 SSW 3 8 2 4 1019.20 0.0
28/03 1:05 am 18.6 15.5 82 20.4 SSW 0 8 0 4 1019.40 0.0
28/03 12:35 am 18.6 15.5 82 18.3 S 3 8 2 4 1019.40 0.0
28/03 12:05 am 18.8 15.6 82 20.7 SSW 0 6 0 3 1019.61 0.0
27/03 11:35 pm 19.0 15.7 81 18.8 SSW 3 8 2 4 1019.91 2.2
27/03 11:05 pm 19.2 16.0 82 19.1 SSW 3 8 2 4 1020.25 2.2
27/03 10:35 pm 19.2 16.6 85 19.3 SSW 3 8 2 4 1020.42 2.2
27/03 10:05 pm 19.1 17.2 89 21.6 CALM 0 0 0 0 1020.52 2.2
27/03 9:35 pm 19.3 17.6 90 21.9 CALM 0 0 0 0 1020.56 2.2
27/03 9:05 pm 19.6 17.7 89 22.3 CALM 0 0 0 0 1020.45 2.2
27/03 8:35 pm 19.8 17.4 86 20.2 SSW 3 14 2 8 1020.35 2.2
27/03 8:05 pm 19.9 17.7 87 22.6 CALM 0 4 0 2 1020.29 2.2
27/03 7:35 pm 19.8 17.6 87 22.4 CALM 0 4 0 2 1020.25 2.2
27/03 7:05 pm 19.8 18.1 90 22.6 CALM 0 2 0 1 1020.35 2.2
27/03 6:35 pm 20.0 18.3 90 22.9 CALM 0 0 0 0 1020.15 2.2
27/03 6:05 pm 20.2 18.9 92 23.4 CALM 0 4 0 2 1019.81 2.2
27/03 5:35 pm 20.4 18.9 91 23.6 CALM 0 6 0 3 1019.71 2.2
27/03 5:05 pm 20.8 18.8 88 21.1 S 4 14 2 8 1019.81 2.0
27/03 4:35 pm 20.8 19.0 89 21.9 SSE 3 8 2 4 1019.57 2.0
27/03 4:05 pm 21.4 19.4 88 20.6 S 6 12 3 6 1019.57 1.6
27/03 3:35 pm 22.1 19.1 83 20.5 S 7 19 4 10 1019.40 1.6
27/03 3:05 pm 22.2 19.5 85 21.5 S 6 15 3 8 1019.40 1.6
27/03 2:35 pm 21.7 20.0 90 19.8 S 8 15 4 8 1019.47 1.6
27/03 2:05 pm 21.8 20.3 91 21.4 SSW 6 12 3 6 1019.51 1.6
27/03 1:35 pm 21.1 19.4 90 22.4 SSW 5 8 3 4 1019.98 1.4
27/03 1:05 pm 21.4 19.3 88 21.3 SW 5 8 3 4 1019.98 1.4
27/03 12:35 pm 23.6 19.3 77 22.1 S 7 23 4 12 1020.12 0.2
27/03 12:05 pm 23.9 18.5 72 20.6 S 9 15 5 8 1020.18 0.2
27/03 11:35 am 23.9 18.1 70 20.4 S 9 19 5 10 1020.32 0.2
27/03 11:05 am 24.5 18.4 69 23.3 SSW 6 15 3 8 1020.39 0.2
27/03 10:35 am 24.7 18.4 68 20.7 S 10 14 5 8 1020.62 0.2
27/03 10:05 am 25.4 19.1 68 23.1 SSW 8 19 4 10 1020.89 0.2
27/03 9:35 am 23.7 18.3 72 22.4 S 6 17 3 9 1020.89 0.2
27/03 9:05 am 24.2 18.9 72 23.2 SSW 6 14 3 8 1020.89 0.2
27/03 8:35 am 23.1 18.9 77 20.7 SSW 8 14 4 8 1020.86 0.2
27/03 8:05 am 21.0 18.2 84 19.7 SSW 6 14 3 8 1020.66 0.2
27/03 7:35 am 19.7 18.0 90 19.7 SSW 4 6 2 3 1020.29 0.2
27/03 7:05 am 18.4 17.5 94 18.8 SW 3 8 2 4 1019.98 0.2
27/03 6:35 am 17.8 17.0 95 20.2 CALM 0 0 0 0 1019.91 0.2
27/03 6:05 am 17.8 17.0 95 20.2 CALM 0 0 0 0 1019.74 0.2
27/03 5:35 am 18.1 17.2 95 20.6 CALM 0 0 0 0 1019.44 0.2
27/03 5:05 am 18.3 17.5 95 20.9 CALM 0 0 0 0 1019.10 0.2